sensor_id;sensor_type;location;lat;lon;timestamp;P1;durP1;ratioP1;P2;durP2;ratioP2
71679;SDS011;59512;42.662;23.254;2023-02-11T00:01:45;33.27;;;16.87;;
71679;SDS011;59512;42.662;23.254;2023-02-11T00:04:11;35.20;;;18.53;;
71679;SDS011;59512;42.662;23.254;2023-02-11T00:06:36;26.40;;;13.73;;
71679;SDS011;59512;42.662;23.254;2023-02-11T00:09:01;29.25;;;16.73;;
71679;SDS011;59512;42.662;23.254;2023-02-11T00:11:27;26.27;;;13.60;;
71679;SDS011;59512;42.662;23.254;2023-02-11T00:13:57;32.97;;;16.55;;
71679;SDS011;59512;42.662;23.254;2023-02-11T00:16:24;27.83;;;14.35;;
71679;SDS011;59512;42.662;23.254;2023-02-11T00:18:49;27.27;;;14.10;;
71679;SDS011;59512;42.662;23.254;2023-02-11T00:21:18;28.98;;;15.50;;
71679;SDS011;59512;42.662;23.254;2023-02-11T00:23:45;31.95;;;16.35;;
71679;SDS011;59512;42.662;23.254;2023-02-11T00:26:14;34.03;;;16.13;;
71679;SDS011;59512;42.662;23.254;2023-02-11T00:28:43;30.77;;;16.45;;
71679;SDS011;59512;42.662;23.254;2023-02-11T00:31:10;30.80;;;15.98;;
71679;SDS011;59512;42.662;23.254;2023-02-11T00:33:36;34.00;;;15.40;;
71679;SDS011;59512;42.662;23.254;2023-02-11T00:36:05;32.00;;;16.40;;
71679;SDS011;59512;42.662;23.254;2023-02-11T00:38:32;33.55;;;18.52;;
71679;SDS011;59512;42.662;23.254;2023-02-11T00:40:57;36.00;;;17.60;;
71679;SDS011;59512;42.662;23.254;2023-02-11T00:43:23;33.47;;;17.67;;
71679;SDS011;59512;42.662;23.254;2023-02-11T00:45:49;41.35;;;20.63;;
71679;SDS011;59512;42.662;23.254;2023-02-11T00:48:14;32.07;;;15.40;;
71679;SDS011;59512;42.662;23.254;2023-02-11T00:50:40;38.63;;;19.92;;
71679;SDS011;59512;42.662;23.254;2023-02-11T00:53:05;37.78;;;18.65;;
71679;SDS011;59512;42.662;23.254;2023-02-11T00:55:31;39.47;;;19.57;;
71679;SDS011;59512;42.662;23.254;2023-02-11T00:57:57;35.63;;;17.02;;
71679;SDS011;59512;42.662;23.254;2023-02-11T01:00:24;30.98;;;15.88;;
71679;SDS011;59512;42.662;23.254;2023-02-11T01:02:50;31.87;;;15.47;;
71679;SDS011;59512;42.662;23.254;2023-02-11T01:05:16;29.15;;;15.05;;
71679;SDS011;59512;42.662;23.254;2023-02-11T01:07:41;29.00;;;14.57;;
71679;SDS011;59512;42.662;23.254;2023-02-11T01:10:07;33.07;;;15.67;;
71679;SDS011;59512;42.662;23.254;2023-02-11T01:12:32;32.23;;;15.03;;
71679;SDS011;59512;42.662;23.254;2023-02-11T01:14:58;33.80;;;16.67;;
71679;SDS011;59512;42.662;23.254;2023-02-11T01:17:23;41.58;;;18.38;;
71679;SDS011;59512;42.662;23.254;2023-02-11T01:19:49;35.20;;;17.17;;
71679;SDS011;59512;42.662;23.254;2023-02-11T01:22:14;34.73;;;16.53;;
71679;SDS011;59512;42.662;23.254;2023-02-11T01:24:40;29.93;;;15.07;;
71679;SDS011;59512;42.662;23.254;2023-02-11T01:27:05;32.13;;;15.90;;
71679;SDS011;59512;42.662;23.254;2023-02-11T01:29:31;33.25;;;16.33;;
71679;SDS011;59512;42.662;23.254;2023-02-11T01:31:56;31.17;;;15.20;;
71679;SDS011;59512;42.662;23.254;2023-02-11T01:34:22;31.27;;;15.23;;
71679;SDS011;59512;42.662;23.254;2023-02-11T01:36:47;30.10;;;15.17;;
71679;SDS011;59512;42.662;23.254;2023-02-11T01:39:12;29.73;;;13.73;;
71679;SDS011;59512;42.662;23.254;2023-02-11T01:41:38;33.10;;;15.60;;
71679;SDS011;59512;42.662;23.254;2023-02-11T01:46:55;32.45;;;15.93;;
71679;SDS011;59512;42.662;23.254;2023-02-11T01:49:22;29.13;;;13.90;;
71679;SDS011;59512;42.662;23.254;2023-02-11T01:51:55;33.28;;;14.60;;
71679;SDS011;59512;42.662;23.254;2023-02-11T01:54:23;28.63;;;14.68;;
71679;SDS011;59512;42.662;23.254;2023-02-11T01:57:10;32.22;;;14.65;;
71679;SDS011;59512;42.662;23.254;2023-02-11T02:07:53;30.40;;;15.10;;
71679;SDS011;59512;42.662;23.254;2023-02-11T02:10:23;34.05;;;14.45;;
71679;SDS011;59512;42.662;23.254;2023-02-11T02:12:51;29.05;;;13.40;;
71679;SDS011;59512;42.662;23.254;2023-02-11T02:40:58;27.90;;;13.33;;
71679;SDS011;59512;42.662;23.254;2023-02-11T02:43:27;24.80;;;12.70;;
71679;SDS011;59512;42.662;23.254;2023-02-11T02:45:53;23.30;;;12.23;;
71679;SDS011;59512;42.662;23.254;2023-02-11T02:48:25;24.33;;;12.05;;
71679;SDS011;59512;42.662;23.254;2023-02-11T02:54:07;24.58;;;11.85;;
71679;SDS011;59512;42.662;23.254;2023-02-11T03:05:17;22.37;;;11.10;;
71679;SDS011;59512;42.662;23.254;2023-02-11T03:10:33;23.15;;;12.43;;
71679;SDS011;59512;42.662;23.254;2023-02-11T03:13:01;24.00;;;11.95;;
71679;SDS011;59512;42.662;23.254;2023-02-11T03:15:28;23.95;;;12.07;;
71679;SDS011;59512;42.662;23.254;2023-02-11T03:17:55;22.10;;;12.20;;
71679;SDS011;59512;42.662;23.254;2023-02-11T03:20:23;25.50;;;12.98;;
71679;SDS011;59512;42.662;23.254;2023-02-11T03:22:53;26.88;;;14.23;;
71679;SDS011;59512;42.662;23.254;2023-02-11T03:25:21;27.00;;;12.57;;
71679;SDS011;59512;42.662;23.254;2023-02-11T03:28:41;22.97;;;11.90;;
71679;SDS011;59512;42.662;23.254;2023-02-11T03:31:04;25.23;;;12.77;;
71679;SDS011;59512;42.662;23.254;2023-02-11T03:36:21;25.70;;;12.65;;
71679;SDS011;59512;42.662;23.254;2023-02-11T03:38:50;26.00;;;12.93;;
71679;SDS011;59512;42.662;23.254;2023-02-11T03:41:19;24.23;;;11.87;;
71679;SDS011;59512;42.662;23.254;2023-02-11T03:43:48;33.10;;;13.07;;
71679;SDS011;59512;42.662;23.254;2023-02-11T03:46:16;25.98;;;12.88;;
71679;SDS011;59512;42.662;23.254;2023-02-11T03:48:44;24.55;;;12.05;;
71679;SDS011;59512;42.662;23.254;2023-02-11T03:51:13;26.63;;;13.03;;
71679;SDS011;59512;42.662;23.254;2023-02-11T03:53:40;25.52;;;11.70;;
71679;SDS011;59512;42.662;23.254;2023-02-11T03:56:09;27.13;;;12.70;;
71679;SDS011;59512;42.662;23.254;2023-02-11T03:58:37;25.58;;;12.10;;
71679;SDS011;59512;42.662;23.254;2023-02-11T04:01:03;25.60;;;12.13;;
71679;SDS011;59512;42.662;23.254;2023-02-11T04:03:29;22.80;;;11.20;;
71679;SDS011;59512;42.662;23.254;2023-02-11T04:05:56;22.55;;;11.68;;
71679;SDS011;59512;42.662;23.254;2023-02-11T04:08:22;22.67;;;11.50;;
71679;SDS011;59512;42.662;23.254;2023-02-11T04:10:47;22.43;;;11.60;;
71679;SDS011;59512;42.662;23.254;2023-02-11T04:13:13;25.07;;;11.90;;
71679;SDS011;59512;42.662;23.254;2023-02-11T04:15:39;23.75;;;12.10;;
71679;SDS011;59512;42.662;23.254;2023-02-11T04:18:04;24.23;;;11.97;;
71679;SDS011;59512;42.662;23.254;2023-02-11T04:20:30;21.07;;;10.93;;
71679;SDS011;59512;42.662;23.254;2023-02-11T04:22:55;22.77;;;11.15;;
71679;SDS011;59512;42.662;23.254;2023-02-11T04:25:20;25.00;;;12.15;;
71679;SDS011;59512;42.662;23.254;2023-02-11T04:27:46;22.63;;;12.23;;
71679;SDS011;59512;42.662;23.254;2023-02-11T04:30:11;26.07;;;13.83;;
71679;SDS011;59512;42.662;23.254;2023-02-11T04:32:37;45.15;;;17.70;;
71679;SDS011;59512;42.662;23.254;2023-02-11T04:35:03;43.03;;;17.58;;
71679;SDS011;59512;42.662;23.254;2023-02-11T04:37:29;35.22;;;16.67;;
71679;SDS011;59512;42.662;23.254;2023-02-11T04:39:55;35.77;;;15.73;;
71679;SDS011;59512;42.662;23.254;2023-02-11T04:42:20;29.37;;;13.90;;
71679;SDS011;59512;42.662;23.254;2023-02-11T04:44:46;25.10;;;13.30;;
71679;SDS011;59512;42.662;23.254;2023-02-11T04:47:11;24.35;;;13.05;;
71679;SDS011;59512;42.662;23.254;2023-02-11T04:49:37;27.50;;;13.05;;
71679;SDS011;59512;42.662;23.254;2023-02-11T04:52:03;29.05;;;13.68;;
71679;SDS011;59512;42.662;23.254;2023-02-11T04:54:28;25.13;;;12.23;;
71679;SDS011;59512;42.662;23.254;2023-02-11T04:56:53;23.73;;;12.73;;
71679;SDS011;59512;42.662;23.254;2023-02-11T04:59:19;30.93;;;12.43;;
71679;SDS011;59512;42.662;23.254;2023-02-11T05:01:44;29.83;;;13.93;;
71679;SDS011;59512;42.662;23.254;2023-02-11T05:04:10;25.42;;;12.93;;
71679;SDS011;59512;42.662;23.254;2023-02-11T05:06:36;27.83;;;12.77;;
71679;SDS011;59512;42.662;23.254;2023-02-11T05:09:03;26.67;;;14.03;;
71679;SDS011;59512;42.662;23.254;2023-02-11T05:11:28;24.83;;;13.35;;
71679;SDS011;59512;42.662;23.254;2023-02-11T05:13:54;25.33;;;12.90;;
71679;SDS011;59512;42.662;23.254;2023-02-11T05:16:19;25.43;;;13.20;;
71679;SDS011;59512;42.662;23.254;2023-02-11T05:18:45;27.43;;;14.60;;
71679;SDS011;59512;42.662;23.254;2023-02-11T05:21:11;25.53;;;14.23;;
71679;SDS011;59512;42.662;23.254;2023-02-11T05:23:40;29.67;;;13.45;;
71679;SDS011;59512;42.662;23.254;2023-02-11T05:26:06;25.95;;;13.57;;
71679;SDS011;59512;42.662;23.254;2023-02-11T05:28:32;24.85;;;13.20;;
71679;SDS011;59512;42.662;23.254;2023-02-11T05:30:58;25.40;;;13.23;;
71679;SDS011;59512;42.662;23.254;2023-02-11T05:33:23;26.77;;;13.77;;
71679;SDS011;59512;42.662;23.254;2023-02-11T05:35:49;30.42;;;15.63;;
71679;SDS011;59512;42.662;23.254;2023-02-11T05:38:14;31.63;;;16.50;;
71679;SDS011;59512;42.662;23.254;2023-02-11T05:40:40;30.20;;;15.70;;
71679;SDS011;59512;42.662;23.254;2023-02-11T05:43:05;31.00;;;16.13;;
71679;SDS011;59512;42.662;23.254;2023-02-11T05:45:31;29.38;;;16.08;;
71679;SDS011;59512;42.662;23.254;2023-02-11T05:47:57;35.10;;;17.07;;
71679;SDS011;59512;42.662;23.254;2023-02-11T05:50:22;36.75;;;17.90;;
71679;SDS011;59512;42.662;23.254;2023-02-11T05:52:47;35.77;;;17.50;;
71679;SDS011;59512;42.662;23.254;2023-02-11T05:55:13;33.77;;;18.70;;
71679;SDS011;59512;42.662;23.254;2023-02-11T05:57:38;38.63;;;19.73;;
71679;SDS011;59512;42.662;23.254;2023-02-11T06:00:04;38.87;;;20.37;;
71679;SDS011;59512;42.662;23.254;2023-02-11T06:02:30;38.63;;;18.80;;
71679;SDS011;59512;42.662;23.254;2023-02-11T06:04:56;36.78;;;18.73;;
71679;SDS011;59512;42.662;23.254;2023-02-11T06:07:21;73.55;;;27.38;;
71679;SDS011;59512;42.662;23.254;2023-02-11T06:09:47;111.63;;;38.30;;
71679;SDS011;59512;42.662;23.254;2023-02-11T06:12:12;122.03;;;45.23;;
71679;SDS011;59512;42.662;23.254;2023-02-11T06:14:37;83.17;;;32.40;;
71679;SDS011;59512;42.662;23.254;2023-02-11T06:17:03;64.27;;;26.93;;
71679;SDS011;59512;42.662;23.254;2023-02-11T06:19:28;87.50;;;35.92;;
71679;SDS011;59512;42.662;23.254;2023-02-11T06:21:55;72.17;;;30.90;;
71679;SDS011;59512;42.662;23.254;2023-02-11T06:24:21;73.38;;;32.97;;
71679;SDS011;59512;42.662;23.254;2023-02-11T06:26:46;57.87;;;27.97;;
71679;SDS011;59512;42.662;23.254;2023-02-11T06:29:12;48.67;;;22.10;;
71679;SDS011;59512;42.662;23.254;2023-02-11T06:31:38;44.03;;;21.65;;
71679;SDS011;59512;42.662;23.254;2023-02-11T06:34:03;48.33;;;24.60;;
71679;SDS011;59512;42.662;23.254;2023-02-11T06:36:29;49.77;;;25.77;;
71679;SDS011;59512;42.662;23.254;2023-02-11T06:38:54;47.87;;;23.20;;
71679;SDS011;59512;42.662;23.254;2023-02-11T06:41:20;42.88;;;21.40;;
71679;SDS011;59512;42.662;23.254;2023-02-11T06:43:46;48.85;;;24.10;;
71679;SDS011;59512;42.662;23.254;2023-02-11T06:46:11;45.40;;;24.23;;
71679;SDS011;59512;42.662;23.254;2023-02-11T06:48:37;46.50;;;24.33;;
71679;SDS011;59512;42.662;23.254;2023-02-11T06:51:07;38.03;;;20.53;;
71679;SDS011;59512;42.662;23.254;2023-02-11T06:53:35;45.72;;;23.30;;
71679;SDS011;59512;42.662;23.254;2023-02-11T06:56:05;46.33;;;22.00;;
71679;SDS011;59512;42.662;23.254;2023-02-11T06:58:32;34.58;;;17.90;;
71679;SDS011;59512;42.662;23.254;2023-02-11T07:00:57;37.33;;;18.75;;
71679;SDS011;59512;42.662;23.254;2023-02-11T07:03:23;42.87;;;21.70;;
71679;SDS011;59512;42.662;23.254;2023-02-11T07:05:49;35.97;;;17.73;;
71679;SDS011;59512;42.662;23.254;2023-02-11T07:08:14;33.38;;;16.80;;
71679;SDS011;59512;42.662;23.254;2023-02-11T07:10:39;30.57;;;16.43;;
71679;SDS011;59512;42.662;23.254;2023-02-11T07:13:05;33.97;;;17.20;;
71679;SDS011;59512;42.662;23.254;2023-02-11T07:15:30;40.77;;;18.43;;
71679;SDS011;59512;42.662;23.254;2023-02-11T07:17:56;31.73;;;16.23;;
71679;SDS011;59512;42.662;23.254;2023-02-11T07:20:21;32.40;;;16.27;;
71679;SDS011;59512;42.662;23.254;2023-02-11T07:22:46;31.50;;;15.20;;
71679;SDS011;59512;42.662;23.254;2023-02-11T07:25:12;30.83;;;16.67;;
71679;SDS011;59512;42.662;23.254;2023-02-11T07:27:37;29.07;;;14.13;;
71679;SDS011;59512;42.662;23.254;2023-02-11T07:30:03;31.53;;;15.77;;
71679;SDS011;59512;42.662;23.254;2023-02-11T07:32:29;28.27;;;15.90;;
71679;SDS011;59512;42.662;23.254;2023-02-11T07:34:54;29.20;;;16.13;;
71679;SDS011;59512;42.662;23.254;2023-02-11T07:37:20;28.93;;;16.40;;
71679;SDS011;59512;42.662;23.254;2023-02-11T07:39:45;32.40;;;15.70;;
71679;SDS011;59512;42.662;23.254;2023-02-11T07:42:11;30.37;;;14.80;;
71679;SDS011;59512;42.662;23.254;2023-02-11T07:44:36;24.37;;;12.90;;
71679;SDS011;59512;42.662;23.254;2023-02-11T07:47:02;27.08;;;13.77;;
71679;SDS011;59512;42.662;23.254;2023-02-11T07:49:27;29.60;;;14.10;;
71679;SDS011;59512;42.662;23.254;2023-02-11T07:51:53;30.23;;;15.00;;
71679;SDS011;59512;42.662;23.254;2023-02-11T07:54:18;32.73;;;14.60;;
71679;SDS011;59512;42.662;23.254;2023-02-11T07:56:44;28.27;;;13.45;;
71679;SDS011;59512;42.662;23.254;2023-02-11T07:59:10;27.83;;;13.43;;
71679;SDS011;59512;42.662;23.254;2023-02-11T08:01:35;30.23;;;15.50;;
71679;SDS011;59512;42.662;23.254;2023-02-11T08:04:01;28.50;;;14.60;;
71679;SDS011;59512;42.662;23.254;2023-02-11T08:06:28;29.83;;;15.10;;
71679;SDS011;59512;42.662;23.254;2023-02-11T08:08:55;24.83;;;13.40;;
71679;SDS011;59512;42.662;23.254;2023-02-11T08:11:21;26.85;;;14.35;;
71679;SDS011;59512;42.662;23.254;2023-02-11T08:13:48;30.73;;;15.63;;
71679;SDS011;59512;42.662;23.254;2023-02-11T08:16:47;28.52;;;15.55;;
71679;SDS011;59512;42.662;23.254;2023-02-11T08:19:07;26.88;;;14.18;;
71679;SDS011;59512;42.662;23.254;2023-02-11T08:21:36;29.57;;;15.20;;
71679;SDS011;59512;42.662;23.254;2023-02-11T08:24:02;29.33;;;14.13;;
71679;SDS011;59512;42.662;23.254;2023-02-11T08:26:28;27.27;;;14.25;;
71679;SDS011;59512;42.662;23.254;2023-02-11T08:28:56;27.02;;;14.07;;
71679;SDS011;59512;42.662;23.254;2023-02-11T08:31:26;29.47;;;15.17;;
71679;SDS011;59512;42.662;23.254;2023-02-11T08:33:53;32.65;;;16.25;;
71679;SDS011;59512;42.662;23.254;2023-02-11T08:36:22;30.27;;;16.08;;
71679;SDS011;59512;42.662;23.254;2023-02-11T08:38:50;33.80;;;17.50;;
71679;SDS011;59512;42.662;23.254;2023-02-11T08:41:16;29.57;;;15.17;;
71679;SDS011;59512;42.662;23.254;2023-02-11T08:43:42;28.65;;;15.93;;
71679;SDS011;59512;42.662;23.254;2023-02-11T08:46:09;33.97;;;17.73;;
71679;SDS011;59512;42.662;23.254;2023-02-11T08:48:37;39.53;;;19.80;;
71679;SDS011;59512;42.662;23.254;2023-02-11T08:51:06;34.47;;;17.87;;
71679;SDS011;59512;42.662;23.254;2023-02-11T08:53:32;31.05;;;16.27;;
71679;SDS011;59512;42.662;23.254;2023-02-11T08:55:58;28.88;;;15.55;;
71679;SDS011;59512;42.662;23.254;2023-02-11T08:58:24;32.07;;;16.40;;
71679;SDS011;59512;42.662;23.254;2023-02-11T09:00:49;27.30;;;14.73;;
71679;SDS011;59512;42.662;23.254;2023-02-11T09:03:14;28.23;;;13.70;;
71679;SDS011;59512;42.662;23.254;2023-02-11T09:05:44;25.97;;;14.37;;
71679;SDS011;59512;42.662;23.254;2023-02-11T09:08:10;24.48;;;12.75;;
71679;SDS011;59512;42.662;23.254;2023-02-11T09:10:37;28.23;;;13.57;;
71679;SDS011;59512;42.662;23.254;2023-02-11T09:13:02;27.20;;;13.93;;
71679;SDS011;59512;42.662;23.254;2023-02-11T09:15:28;27.23;;;13.47;;
71679;SDS011;59512;42.662;23.254;2023-02-11T09:17:54;29.00;;;15.07;;
71679;SDS011;59512;42.662;23.254;2023-02-11T09:20:20;29.17;;;15.20;;
71679;SDS011;59512;42.662;23.254;2023-02-11T09:22:46;30.75;;;15.20;;
71679;SDS011;59512;42.662;23.254;2023-02-11T09:25:11;28.00;;;14.80;;
71679;SDS011;59512;42.662;23.254;2023-02-11T09:27:37;25.48;;;14.40;;
71679;SDS011;59512;42.662;23.254;2023-02-11T09:30:03;28.13;;;14.60;;
71679;SDS011;59512;42.662;23.254;2023-02-11T09:32:28;28.02;;;14.32;;
71679;SDS011;59512;42.662;23.254;2023-02-11T09:34:54;28.83;;;15.50;;
71679;SDS011;59512;42.662;23.254;2023-02-11T09:37:19;30.33;;;15.93;;
71679;SDS011;59512;42.662;23.254;2023-02-11T09:39:44;27.27;;;14.10;;
71679;SDS011;59512;42.662;23.254;2023-02-11T09:44:57;28.98;;;15.27;;
71679;SDS011;59512;42.662;23.254;2023-02-11T09:50:01;25.83;;;13.88;;
71679;SDS011;59512;42.662;23.254;2023-02-11T09:54:55;22.73;;;12.77;;
71679;SDS011;59512;42.662;23.254;2023-02-11T09:57:22;24.95;;;12.88;;
71679;SDS011;59512;42.662;23.254;2023-02-11T09:59:51;27.27;;;12.80;;
71679;SDS011;59512;42.662;23.254;2023-02-11T10:07:44;22.67;;;12.00;;
71679;SDS011;59512;42.662;23.254;2023-02-11T10:15:56;20.60;;;10.13;;
71679;SDS011;59512;42.662;23.254;2023-02-11T10:21:16;20.85;;;10.68;;
71679;SDS011;59512;42.662;23.254;2023-02-11T10:23:49;18.45;;;9.68;;
71679;SDS011;59512;42.662;23.254;2023-02-11T10:26:17;20.00;;;10.30;;
71679;SDS011;59512;42.662;23.254;2023-02-11T10:28:47;22.47;;;10.50;;
71679;SDS011;59512;42.662;23.254;2023-02-11T10:31:24;22.02;;;10.55;;
71679;SDS011;59512;42.662;23.254;2023-02-11T10:34:10;21.73;;;10.63;;
71679;SDS011;59512;42.662;23.254;2023-02-11T10:36:38;18.50;;;9.38;;
71679;SDS011;59512;42.662;23.254;2023-02-11T10:39:18;19.27;;;9.43;;
71679;SDS011;59512;42.662;23.254;2023-02-11T10:44:34;17.83;;;8.88;;
71679;SDS011;59512;42.662;23.254;2023-02-11T10:47:03;18.10;;;9.07;;
71679;SDS011;59512;42.662;23.254;2023-02-11T10:49:35;21.45;;;9.07;;
71679;SDS011;59512;42.662;23.254;2023-02-11T10:54:53;22.23;;;11.93;;
71679;SDS011;59512;42.662;23.254;2023-02-11T10:57:41;22.33;;;12.38;;
71679;SDS011;59512;42.662;23.254;2023-02-11T11:00:42;20.13;;;10.82;;
71679;SDS011;59512;42.662;23.254;2023-02-11T11:03:02;19.95;;;10.05;;
71679;SDS011;59512;42.662;23.254;2023-02-11T11:05:31;22.27;;;10.63;;
71679;SDS011;59512;42.662;23.254;2023-02-11T11:08:01;21.00;;;10.10;;
71679;SDS011;59512;42.662;23.254;2023-02-11T11:10:33;21.30;;;10.07;;
71679;SDS011;59512;42.662;23.254;2023-02-11T11:13:01;21.33;;;10.93;;
71679;SDS011;59512;42.662;23.254;2023-02-11T11:15:27;18.33;;;9.13;;
71679;SDS011;59512;42.662;23.254;2023-02-11T11:20:55;18.88;;;9.05;;
71679;SDS011;59512;42.662;23.254;2023-02-11T11:23:23;15.88;;;8.48;;
71679;SDS011;59512;42.662;23.254;2023-02-11T11:28:54;19.90;;;9.77;;
71679;SDS011;59512;42.662;23.254;2023-02-11T11:31:23;19.52;;;9.48;;
71679;SDS011;59512;42.662;23.254;2023-02-11T11:33:51;18.30;;;8.85;;
71679;SDS011;59512;42.662;23.254;2023-02-11T11:36:20;20.55;;;9.38;;
71679;SDS011;59512;42.662;23.254;2023-02-11T11:38:57;19.37;;;8.90;;
71679;SDS011;59512;42.662;23.254;2023-02-11T11:41:27;19.02;;;9.73;;
71679;SDS011;59512;42.662;23.254;2023-02-11T11:46:38;21.63;;;9.40;;
71679;SDS011;59512;42.662;23.254;2023-02-11T11:49:11;18.35;;;8.85;;
71679;SDS011;59512;42.662;23.254;2023-02-11T11:52:33;19.20;;;9.47;;
71679;SDS011;59512;42.662;23.254;2023-02-11T11:54:52;18.15;;;9.27;;
71679;SDS011;59512;42.662;23.254;2023-02-11T11:57:21;17.80;;;9.27;;
71679;SDS011;59512;42.662;23.254;2023-02-11T11:59:51;18.20;;;9.02;;
71679;SDS011;59512;42.662;23.254;2023-02-11T12:02:32;19.57;;;9.03;;
71679;SDS011;59512;42.662;23.254;2023-02-11T12:13:39;19.23;;;10.32;;
71679;SDS011;59512;42.662;23.254;2023-02-11T12:22:09;17.88;;;8.77;;
71679;SDS011;59512;42.662;23.254;2023-02-11T12:24:59;18.90;;;9.30;;
71679;SDS011;59512;42.662;23.254;2023-02-11T12:32:48;17.38;;;8.20;;
71679;SDS011;59512;42.662;23.254;2023-02-11T12:35:27;19.35;;;8.68;;
71679;SDS011;59512;42.662;23.254;2023-02-11T12:38:10;14.70;;;7.70;;
71679;SDS011;59512;42.662;23.254;2023-02-11T12:44:44;15.82;;;8.05;;
71679;SDS011;59512;42.662;23.254;2023-02-11T12:53:05;18.23;;;8.17;;
71679;SDS011;59512;42.662;23.254;2023-02-11T12:55:42;15.00;;;7.50;;
71679;SDS011;59512;42.662;23.254;2023-02-11T12:58:11;18.15;;;9.18;;
71679;SDS011;59512;42.662;23.254;2023-02-11T13:00:50;18.08;;;8.07;;
71679;SDS011;59512;42.662;23.254;2023-02-11T13:06:13;18.57;;;9.17;;
71679;SDS011;59512;42.662;23.254;2023-02-11T13:08:46;17.08;;;9.02;;
71679;SDS011;59512;42.662;23.254;2023-02-11T13:21:47;15.73;;;8.18;;
71679;SDS011;59512;42.662;23.254;2023-02-11T13:32:05;15.23;;;8.20;;
71679;SDS011;59512;42.662;23.254;2023-02-11T13:37:39;16.23;;;8.50;;
71679;SDS011;59512;42.662;23.254;2023-02-11T13:40:04;17.27;;;8.13;;
71679;SDS011;59512;42.662;23.254;2023-02-11T13:42:55;15.70;;;8.10;;
71679;SDS011;59512;42.662;23.254;2023-02-11T13:48:29;16.80;;;8.05;;
71679;SDS011;59512;42.662;23.254;2023-02-11T13:50:57;14.63;;;7.63;;
71679;SDS011;59512;42.662;23.254;2023-02-11T13:53:24;17.08;;;8.30;;
71679;SDS011;59512;42.662;23.254;2023-02-11T13:55:52;18.25;;;10.32;;
71679;SDS011;59512;42.662;23.254;2023-02-11T14:00:54;19.88;;;9.38;;
71679;SDS011;59512;42.662;23.254;2023-02-11T14:06:18;14.35;;;8.25;;
71679;SDS011;59512;42.662;23.254;2023-02-11T14:22:10;17.05;;;8.55;;
71679;SDS011;59512;42.662;23.254;2023-02-11T14:32:32;17.40;;;8.87;;
71679;SDS011;59512;42.662;23.254;2023-02-11T14:35:11;19.88;;;9.65;;
71679;SDS011;59512;42.662;23.254;2023-02-11T14:37:41;18.00;;;9.57;;
71679;SDS011;59512;42.662;23.254;2023-02-11T14:40:17;18.98;;;8.82;;
71679;SDS011;59512;42.662;23.254;2023-02-11T14:43:15;17.65;;;10.15;;
71679;SDS011;59512;42.662;23.254;2023-02-11T14:45:44;18.60;;;9.50;;
71679;SDS011;59512;42.662;23.254;2023-02-11T14:48:15;20.77;;;10.00;;
71679;SDS011;59512;42.662;23.254;2023-02-11T14:50:43;21.60;;;11.02;;
71679;SDS011;59512;42.662;23.254;2023-02-11T14:53:17;21.00;;;10.75;;
71679;SDS011;59512;42.662;23.254;2023-02-11T14:55:48;20.70;;;11.00;;
71679;SDS011;59512;42.662;23.254;2023-02-11T14:58:17;22.00;;;11.10;;
71679;SDS011;59512;42.662;23.254;2023-02-11T15:00:50;25.08;;;13.63;;
71679;SDS011;59512;42.662;23.254;2023-02-11T15:05:59;22.48;;;11.80;;
71679;SDS011;59512;42.662;23.254;2023-02-11T15:08:46;29.00;;;13.75;;
71679;SDS011;59512;42.662;23.254;2023-02-11T15:11:18;29.00;;;14.80;;
71679;SDS011;59512;42.662;23.254;2023-02-11T15:13:45;29.58;;;14.32;;
71679;SDS011;59512;42.662;23.254;2023-02-11T15:16:12;31.02;;;14.18;;
71679;SDS011;59512;42.662;23.254;2023-02-11T15:18:42;27.38;;;13.23;;
71679;SDS011;59512;42.662;23.254;2023-02-11T15:21:11;27.08;;;12.95;;
71679;SDS011;59512;42.662;23.254;2023-02-11T15:23:37;25.67;;;12.57;;
71679;SDS011;59512;42.662;23.254;2023-02-11T15:26:11;21.38;;;12.25;;
71679;SDS011;59512;42.662;23.254;2023-02-11T15:28:45;27.80;;;13.33;;
71679;SDS011;59512;42.662;23.254;2023-02-11T15:31:16;30.15;;;13.38;;
71679;SDS011;59512;42.662;23.254;2023-02-11T15:33:44;26.50;;;13.18;;
71679;SDS011;59512;42.662;23.254;2023-02-11T15:36:10;27.87;;;14.07;;
71679;SDS011;59512;42.662;23.254;2023-02-11T15:38:36;32.40;;;16.90;;
71679;SDS011;59512;42.662;23.254;2023-02-11T15:41:02;48.50;;;26.17;;
71679;SDS011;59512;42.662;23.254;2023-02-11T15:43:49;51.17;;;30.10;;
71679;SDS011;59512;42.662;23.254;2023-02-11T15:46:18;44.97;;;22.48;;
71679;SDS011;59512;42.662;23.254;2023-02-11T15:48:49;43.10;;;22.77;;
71679;SDS011;59512;42.662;23.254;2023-02-11T15:53:57;53.90;;;30.70;;
71679;SDS011;59512;42.662;23.254;2023-02-11T15:56:26;36.58;;;20.88;;
71679;SDS011;59512;42.662;23.254;2023-02-11T15:58:57;47.75;;;25.92;;
71679;SDS011;59512;42.662;23.254;2023-02-11T16:01:28;49.60;;;25.10;;
71679;SDS011;59512;42.662;23.254;2023-02-11T16:03:58;39.55;;;20.85;;
71679;SDS011;59512;42.662;23.254;2023-02-11T16:06:24;58.97;;;33.67;;
71679;SDS011;59512;42.662;23.254;2023-02-11T16:17:02;80.75;;;51.40;;
71679;SDS011;59512;42.662;23.254;2023-02-11T16:19:28;64.70;;;39.13;;
71679;SDS011;59512;42.662;23.254;2023-02-11T16:21:55;49.38;;;30.58;;
71679;SDS011;59512;42.662;23.254;2023-02-11T16:24:28;46.63;;;29.33;;
71679;SDS011;59512;42.662;23.254;2023-02-11T16:26:56;46.50;;;25.30;;
71679;SDS011;59512;42.662;23.254;2023-02-11T16:29:29;41.35;;;21.10;;
71679;SDS011;59512;42.662;23.254;2023-02-11T16:32:16;42.63;;;23.15;;
71679;SDS011;59512;42.662;23.254;2023-02-11T16:34:43;39.85;;;20.48;;
71679;SDS011;59512;42.662;23.254;2023-02-11T16:37:09;46.27;;;24.10;;
71679;SDS011;59512;42.662;23.254;2023-02-11T16:39:34;60.90;;;29.67;;
71679;SDS011;59512;42.662;23.254;2023-02-11T16:42:00;62.78;;;31.10;;
71679;SDS011;59512;42.662;23.254;2023-02-11T16:44:26;53.80;;;26.60;;
71679;SDS011;59512;42.662;23.254;2023-02-11T16:46:52;50.65;;;26.33;;
71679;SDS011;59512;42.662;23.254;2023-02-11T16:49:22;63.05;;;29.80;;
71679;SDS011;59512;42.662;23.254;2023-02-11T16:51:49;55.97;;;29.43;;
71679;SDS011;59512;42.662;23.254;2023-02-11T16:54:16;66.85;;;32.40;;
71679;SDS011;59512;42.662;23.254;2023-02-11T16:56:42;56.53;;;27.65;;
71679;SDS011;59512;42.662;23.254;2023-02-11T16:59:08;56.17;;;28.10;;
71679;SDS011;59512;42.662;23.254;2023-02-11T17:01:34;60.20;;;29.90;;
71679;SDS011;59512;42.662;23.254;2023-02-11T17:04:02;39.45;;;19.35;;
71679;SDS011;59512;42.662;23.254;2023-02-11T17:06:27;44.23;;;21.60;;
71679;SDS011;59512;42.662;23.254;2023-02-11T17:08:53;42.08;;;23.33;;
71679;SDS011;59512;42.662;23.254;2023-02-11T17:11:18;45.63;;;23.07;;
71679;SDS011;59512;42.662;23.254;2023-02-11T17:13:44;47.43;;;23.73;;
71679;SDS011;59512;42.662;23.254;2023-02-11T17:16:12;48.63;;;23.98;;
71679;SDS011;59512;42.662;23.254;2023-02-11T17:18:41;46.97;;;23.23;;
71679;SDS011;59512;42.662;23.254;2023-02-11T17:21:06;45.38;;;22.00;;
71679;SDS011;59512;42.662;23.254;2023-02-11T17:23:32;43.53;;;21.33;;
71679;SDS011;59512;42.662;23.254;2023-02-11T17:25:57;40.17;;;20.37;;